This is the latest recevied weather packets stored in our database for station/object OH5GWF-1. If no packets are shown the sender has not sent any weather packets the latest 10 day(s).
| Time | Temp. | Humidity | Pressure | Rain* | Wind** | Luminosity | Snow |
|---|---|---|---|---|---|---|---|
| 1777735311 | 20.56° C | 34% | 1005.7 hPa | 0 mm | - | - | - |
| 1777734889 | 20.56° C | 33% | 1005.7 hPa | 0 mm | - | - | - |
| 1777734477 | 21.11° C | 33% | 1005.8 hPa | 0 mm | - | - | - |
| 1777734055 | 21.67° C | 32% | 1005.8 hPa | 0 mm | - | - | - |
| 1777733634 | 22.78° C | 31% | 1005.7 hPa | 0 mm | - | - | - |
| 1777733211 | 25° C | 29% | 1005.7 hPa | 0 mm | - | - | - |
| 1777732789 | 25° C | 31% | 1005.7 hPa | 0 mm | - | - | - |
| 1777732377 | 23.33° C | 32% | 1005.6 hPa | 0 mm | - | - | - |
| 1777731955 | 25° C | 33% | 1005.8 hPa | 0 mm | - | - | - |
| 1777731533 | 27.22° C | 33% | 1005.8 hPa | 0 mm | - | - | - |
| 1777731110 | 30.56° C | 30% | 1005.9 hPa | 0 mm | - | - | - |
| 1777730699 | 30.56° C | 30% | 1006 hPa | 0 mm | - | - | - |
| 1777730279 | 31.11° C | 30% | 1006 hPa | 0 mm | - | - | - |
| 1777729857 | 29.44° C | 32% | 1006.1 hPa | 0 mm | - | - | - |
| 1777729436 | 27.22° C | 34% | 1006.2 hPa | 0 mm | - | - | - |
| 1777729013 | 23.89° C | 37% | 1006.3 hPa | 0 mm | - | - | - |
| 1777728591 | 23.89° C | 37% | 1006.4 hPa | 0 mm | - | - | - |
| 1777728180 | 23.89° C | 35% | 1006.4 hPa | 0 mm | - | - | - |
| 1777727757 | 23.89° C | 32% | 1006.5 hPa | 0 mm | - | - | - |
| 1777727335 | 25.56° C | 29% | 1006.3 hPa | 0 mm | - | - | - |
| 1777726912 | 28.33° C | 28% | 1006.3 hPa | 0 mm | - | - | - |
| 1777726490 | 30° C | 27% | 1006.5 hPa | 0 mm | - | - | - |
| 1777726080 | 32.78° C | 24% | 1006.6 hPa | 0 mm | - | - | - |
| 1777725657 | 32.78° C | 25% | 1006.8 hPa | 0 mm | - | - | - |
| 1777725235 | 32.78° C | 26% | 1006.9 hPa | 0 mm | - | - | - |
* Rain latest hour (hover to see other rain measurements)
** Current wind speed in m/s (hover to see current wind gust speed)